sensor_id;sensor_type;location;lat;lon;timestamp;P1;durP1;ratioP1;P2;durP2;ratioP2
75169;SDS011;63749;49.186;9.222;2024-01-06T00:00:17;11.48;;;5.95;;
75169;SDS011;63749;49.186;9.222;2024-01-06T00:02:43;10.83;;;5.70;;
75169;SDS011;63749;49.186;9.222;2024-01-06T00:05:08;12.13;;;5.90;;
75169;SDS011;63749;49.186;9.222;2024-01-06T00:07:33;10.65;;;6.00;;
75169;SDS011;63749;49.186;9.222;2024-01-06T00:09:59;12.90;;;6.43;;
75169;SDS011;63749;49.186;9.222;2024-01-06T00:12:24;14.17;;;7.40;;
75169;SDS011;63749;49.186;9.222;2024-01-06T00:14:49;14.07;;;7.00;;
75169;SDS011;63749;49.186;9.222;2024-01-06T00:17:15;13.40;;;7.13;;
75169;SDS011;63749;49.186;9.222;2024-01-06T00:19:41;13.32;;;6.90;;
75169;SDS011;63749;49.186;9.222;2024-01-06T00:22:06;14.10;;;7.20;;
75169;SDS011;63749;49.186;9.222;2024-01-06T00:24:31;17.70;;;7.57;;
75169;SDS011;63749;49.186;9.222;2024-01-06T00:26:57;15.20;;;6.70;;
75169;SDS011;63749;49.186;9.222;2024-01-06T00:29:22;13.33;;;6.10;;
75169;SDS011;63749;49.186;9.222;2024-01-06T00:31:48;13.93;;;6.50;;
75169;SDS011;63749;49.186;9.222;2024-01-06T00:34:13;13.50;;;6.87;;
75169;SDS011;63749;49.186;9.222;2024-01-06T00:36:38;10.97;;;5.87;;
75169;SDS011;63749;49.186;9.222;2024-01-06T00:39:04;12.90;;;6.07;;
75169;SDS011;63749;49.186;9.222;2024-01-06T00:41:29;15.90;;;6.20;;
75169;SDS011;63749;49.186;9.222;2024-01-06T00:43:55;11.02;;;5.50;;
75169;SDS011;63749;49.186;9.222;2024-01-06T00:46:20;11.73;;;5.90;;
75169;SDS011;63749;49.186;9.222;2024-01-06T00:48:45;13.07;;;5.80;;
75169;SDS011;63749;49.186;9.222;2024-01-06T00:51:11;18.50;;;6.90;;
75169;SDS011;63749;49.186;9.222;2024-01-06T00:53:36;12.93;;;5.70;;
75169;SDS011;63749;49.186;9.222;2024-01-06T00:56:01;17.03;;;5.30;;
75169;SDS011;63749;49.186;9.222;2024-01-06T00:58:27;11.77;;;4.90;;
75169;SDS011;63749;49.186;9.222;2024-01-06T01:00:53;11.90;;;4.87;;
75169;SDS011;63749;49.186;9.222;2024-01-06T01:03:18;10.18;;;4.65;;
75169;SDS011;63749;49.186;9.222;2024-01-06T01:05:43;12.77;;;4.70;;
75169;SDS011;63749;49.186;9.222;2024-01-06T01:08:09;9.63;;;4.60;;
75169;SDS011;63749;49.186;9.222;2024-01-06T01:10:34;12.80;;;4.13;;
75169;SDS011;63749;49.186;9.222;2024-01-06T01:12:59;12.30;;;4.23;;
75169;SDS011;63749;49.186;9.222;2024-01-06T01:15:25;9.23;;;4.50;;
75169;SDS011;63749;49.186;9.222;2024-01-06T01:17:50;12.10;;;4.90;;
75169;SDS011;63749;49.186;9.222;2024-01-06T01:20:16;17.13;;;5.70;;
75169;SDS011;63749;49.186;9.222;2024-01-06T01:22:41;13.47;;;5.77;;
75169;SDS011;63749;49.186;9.222;2024-01-06T01:25:06;12.87;;;5.70;;
75169;SDS011;63749;49.186;9.222;2024-01-06T01:27:33;10.05;;;5.18;;
75169;SDS011;63749;49.186;9.222;2024-01-06T01:29:59;13.63;;;5.07;;
75169;SDS011;63749;49.186;9.222;2024-01-06T01:32:24;9.67;;;4.70;;
75169;SDS011;63749;49.186;9.222;2024-01-06T01:34:50;9.00;;;4.77;;
75169;SDS011;63749;49.186;9.222;2024-01-06T01:37:15;13.43;;;4.83;;
75169;SDS011;63749;49.186;9.222;2024-01-06T01:39:40;8.47;;;4.30;;
75169;SDS011;63749;49.186;9.222;2024-01-06T01:42:06;12.87;;;4.50;;
75169;SDS011;63749;49.186;9.222;2024-01-06T01:44:31;11.60;;;4.40;;
75169;SDS011;63749;49.186;9.222;2024-01-06T01:46:57;11.70;;;4.67;;
75169;SDS011;63749;49.186;9.222;2024-01-06T01:49:22;7.80;;;3.90;;
75169;SDS011;63749;49.186;9.222;2024-01-06T01:51:48;8.68;;;4.32;;
75169;SDS011;63749;49.186;9.222;2024-01-06T01:54:14;12.80;;;5.07;;
75169;SDS011;63749;49.186;9.222;2024-01-06T01:56:42;9.87;;;4.57;;
75169;SDS011;63749;49.186;9.222;2024-01-06T01:59:11;11.25;;;5.28;;
75169;SDS011;63749;49.186;9.222;2024-01-06T02:01:38;14.50;;;7.55;;
75169;SDS011;63749;49.186;9.222;2024-01-06T02:04:05;13.45;;;7.88;;
75169;SDS011;63749;49.186;9.222;2024-01-06T02:06:30;15.27;;;7.93;;
75169;SDS011;63749;49.186;9.222;2024-01-06T02:08:56;12.43;;;7.50;;
75169;SDS011;63749;49.186;9.222;2024-01-06T02:11:21;14.57;;;7.40;;
75169;SDS011;63749;49.186;9.222;2024-01-06T02:13:47;13.80;;;6.97;;
75169;SDS011;63749;49.186;9.222;2024-01-06T02:16:12;15.00;;;6.47;;
75169;SDS011;63749;49.186;9.222;2024-01-06T02:18:37;11.83;;;6.13;;
75169;SDS011;63749;49.186;9.222;2024-01-06T02:21:03;12.87;;;6.33;;
75169;SDS011;63749;49.186;9.222;2024-01-06T02:23:29;11.50;;;6.35;;
75169;SDS011;63749;49.186;9.222;2024-01-06T02:25:54;13.65;;;6.75;;
75169;SDS011;63749;49.186;9.222;2024-01-06T02:28:20;19.00;;;6.90;;
75169;SDS011;63749;49.186;9.222;2024-01-06T02:30:46;14.98;;;6.90;;
75169;SDS011;63749;49.186;9.222;2024-01-06T02:33:12;11.23;;;6.00;;
75169;SDS011;63749;49.186;9.222;2024-01-06T02:35:37;11.73;;;6.53;;
75169;SDS011;63749;49.186;9.222;2024-01-06T02:38:02;14.23;;;6.03;;
75169;SDS011;63749;49.186;9.222;2024-01-06T02:40:28;14.67;;;6.27;;
75169;SDS011;63749;49.186;9.222;2024-01-06T02:42:53;14.80;;;5.40;;
75169;SDS011;63749;49.186;9.222;2024-01-06T02:45:19;9.20;;;5.05;;
75169;SDS011;63749;49.186;9.222;2024-01-06T02:47:44;11.47;;;5.80;;
75169;SDS011;63749;49.186;9.222;2024-01-06T02:50:10;11.07;;;5.50;;
75169;SDS011;63749;49.186;9.222;2024-01-06T02:52:35;13.07;;;5.77;;
75169;SDS011;63749;49.186;9.222;2024-01-06T02:55:01;10.33;;;5.60;;
75169;SDS011;63749;49.186;9.222;2024-01-06T02:57:30;11.73;;;4.93;;
75169;SDS011;63749;49.186;9.222;2024-01-06T02:59:55;11.32;;;4.70;;
75169;SDS011;63749;49.186;9.222;2024-01-06T03:02:21;12.50;;;4.60;;
75169;SDS011;63749;49.186;9.222;2024-01-06T03:04:46;8.70;;;4.40;;
75169;SDS011;63749;49.186;9.222;2024-01-06T03:07:12;11.03;;;4.13;;
75169;SDS011;63749;49.186;9.222;2024-01-06T03:09:37;8.63;;;3.35;;
75169;SDS011;63749;49.186;9.222;2024-01-06T03:12:04;10.50;;;3.10;;
75169;SDS011;63749;49.186;9.222;2024-01-06T03:14:31;8.45;;;3.17;;
75169;SDS011;63749;49.186;9.222;2024-01-06T03:16:56;9.32;;;3.03;;
75169;SDS011;63749;49.186;9.222;2024-01-06T03:19:23;6.57;;;2.57;;
75169;SDS011;63749;49.186;9.222;2024-01-06T03:21:51;8.32;;;2.78;;
75169;SDS011;63749;49.186;9.222;2024-01-06T03:24:16;6.60;;;2.42;;
75169;SDS011;63749;49.186;9.222;2024-01-06T03:26:42;7.87;;;2.70;;
75169;SDS011;63749;49.186;9.222;2024-01-06T03:29:07;6.97;;;2.67;;
75169;SDS011;63749;49.186;9.222;2024-01-06T03:31:32;6.30;;;2.83;;
75169;SDS011;63749;49.186;9.222;2024-01-06T03:33:58;6.03;;;2.53;;
75169;SDS011;63749;49.186;9.222;2024-01-06T03:36:23;5.47;;;2.60;;
75169;SDS011;63749;49.186;9.222;2024-01-06T03:38:48;8.20;;;2.30;;
75169;SDS011;63749;49.186;9.222;2024-01-06T03:41:14;6.83;;;2.60;;
75169;SDS011;63749;49.186;9.222;2024-01-06T03:43:39;9.40;;;2.57;;
75169;SDS011;63749;49.186;9.222;2024-01-06T03:46:05;5.20;;;2.40;;
75169;SDS011;63749;49.186;9.222;2024-01-06T03:48:30;7.20;;;2.50;;
75169;SDS011;63749;49.186;9.222;2024-01-06T03:50:57;5.70;;;2.40;;
75169;SDS011;63749;49.186;9.222;2024-01-06T03:53:22;6.97;;;2.40;;
75169;SDS011;63749;49.186;9.222;2024-01-06T03:55:48;6.67;;;2.27;;
75169;SDS011;63749;49.186;9.222;2024-01-06T03:58:13;9.40;;;2.37;;
75169;SDS011;63749;49.186;9.222;2024-01-06T04:00:38;6.43;;;2.38;;
75169;SDS011;63749;49.186;9.222;2024-01-06T04:03:03;7.50;;;2.47;;
75169;SDS011;63749;49.186;9.222;2024-01-06T04:05:30;6.20;;;2.20;;
75169;SDS011;63749;49.186;9.222;2024-01-06T04:07:56;7.43;;;2.22;;
75169;SDS011;63749;49.186;9.222;2024-01-06T04:10:21;7.87;;;2.30;;
75169;SDS011;63749;49.186;9.222;2024-01-06T04:12:46;8.80;;;2.30;;
75169;SDS011;63749;49.186;9.222;2024-01-06T04:15:12;7.87;;;2.53;;
75169;SDS011;63749;49.186;9.222;2024-01-06T04:17:37;5.63;;;2.40;;
75169;SDS011;63749;49.186;9.222;2024-01-06T04:20:02;8.37;;;2.70;;
75169;SDS011;63749;49.186;9.222;2024-01-06T04:22:29;10.02;;;2.42;;
75169;SDS011;63749;49.186;9.222;2024-01-06T04:24:54;6.07;;;2.40;;
75169;SDS011;63749;49.186;9.222;2024-01-06T04:27:19;9.33;;;2.60;;
75169;SDS011;63749;49.186;9.222;2024-01-06T04:29:45;6.22;;;2.30;;
75169;SDS011;63749;49.186;9.222;2024-01-06T04:32:10;9.37;;;3.00;;
75169;SDS011;63749;49.186;9.222;2024-01-06T04:34:35;7.97;;;2.60;;
75169;SDS011;63749;49.186;9.222;2024-01-06T04:37:01;7.47;;;2.40;;
75169;SDS011;63749;49.186;9.222;2024-01-06T04:39:26;6.83;;;2.20;;
75169;SDS011;63749;49.186;9.222;2024-01-06T04:41:52;7.97;;;2.87;;
75169;SDS011;63749;49.186;9.222;2024-01-06T04:44:20;9.20;;;2.60;;
75169;SDS011;63749;49.186;9.222;2024-01-06T04:46:46;6.97;;;2.60;;
75169;SDS011;63749;49.186;9.222;2024-01-06T04:49:11;6.95;;;2.78;;
75169;SDS011;63749;49.186;9.222;2024-01-06T04:51:37;7.10;;;2.63;;
75169;SDS011;63749;49.186;9.222;2024-01-06T04:54:02;6.13;;;2.70;;
75169;SDS011;63749;49.186;9.222;2024-01-06T04:56:28;7.97;;;2.97;;
75169;SDS011;63749;49.186;9.222;2024-01-06T04:58:53;7.87;;;2.80;;
75169;SDS011;63749;49.186;9.222;2024-01-06T05:01:18;6.20;;;2.50;;
75169;SDS011;63749;49.186;9.222;2024-01-06T05:03:44;8.97;;;2.67;;
75169;SDS011;63749;49.186;9.222;2024-01-06T05:06:09;7.90;;;2.80;;
75169;SDS011;63749;49.186;9.222;2024-01-06T05:08:35;8.32;;;2.65;;
75169;SDS011;63749;49.186;9.222;2024-01-06T05:11:03;8.13;;;2.60;;
75169;SDS011;63749;49.186;9.222;2024-01-06T05:13:30;7.30;;;2.67;;
75169;SDS011;63749;49.186;9.222;2024-01-06T05:15:55;7.17;;;2.80;;
75169;SDS011;63749;49.186;9.222;2024-01-06T05:18:20;8.50;;;2.80;;
75169;SDS011;63749;49.186;9.222;2024-01-06T05:20:46;6.03;;;2.85;;
75169;SDS011;63749;49.186;9.222;2024-01-06T05:23:12;8.77;;;3.00;;
75169;SDS011;63749;49.186;9.222;2024-01-06T05:25:37;7.57;;;2.90;;
75169;SDS011;63749;49.186;9.222;2024-01-06T05:28:02;6.03;;;2.60;;
75169;SDS011;63749;49.186;9.222;2024-01-06T05:30:28;9.23;;;3.10;;
75169;SDS011;63749;49.186;9.222;2024-01-06T05:32:53;8.43;;;3.17;;
75169;SDS011;63749;49.186;9.222;2024-01-06T05:35:19;6.27;;;2.90;;
75169;SDS011;63749;49.186;9.222;2024-01-06T05:37:44;8.53;;;2.90;;
75169;SDS011;63749;49.186;9.222;2024-01-06T05:40:09;10.57;;;3.10;;
75169;SDS011;63749;49.186;9.222;2024-01-06T05:42:36;8.50;;;3.35;;
75169;SDS011;63749;49.186;9.222;2024-01-06T05:45:01;7.60;;;3.00;;
75169;SDS011;63749;49.186;9.222;2024-01-06T05:47:27;7.93;;;3.10;;
75169;SDS011;63749;49.186;9.222;2024-01-06T05:49:52;11.48;;;3.25;;
75169;SDS011;63749;49.186;9.222;2024-01-06T05:52:18;11.20;;;3.13;;
75169;SDS011;63749;49.186;9.222;2024-01-06T05:54:43;7.83;;;2.97;;
75169;SDS011;63749;49.186;9.222;2024-01-06T05:57:08;8.17;;;2.87;;
75169;SDS011;63749;49.186;9.222;2024-01-06T05:59:34;9.63;;;3.00;;
75169;SDS011;63749;49.186;9.222;2024-01-06T06:02:00;7.65;;;2.63;;
75169;SDS011;63749;49.186;9.222;2024-01-06T06:04:25;10.53;;;2.90;;
75169;SDS011;63749;49.186;9.222;2024-01-06T06:06:51;8.10;;;3.23;;
75169;SDS011;63749;49.186;9.222;2024-01-06T06:09:16;7.55;;;2.70;;
75169;SDS011;63749;49.186;9.222;2024-01-06T06:11:41;8.00;;;2.90;;
75169;SDS011;63749;49.186;9.222;2024-01-06T06:14:07;10.20;;;3.10;;
75169;SDS011;63749;49.186;9.222;2024-01-06T06:16:33;10.17;;;2.93;;
75169;SDS011;63749;49.186;9.222;2024-01-06T06:18:58;8.63;;;3.00;;
75169;SDS011;63749;49.186;9.222;2024-01-06T06:21:24;6.33;;;2.70;;
75169;SDS011;63749;49.186;9.222;2024-01-06T06:23:49;7.33;;;3.00;;
75169;SDS011;63749;49.186;9.222;2024-01-06T06:26:15;7.90;;;3.20;;
75169;SDS011;63749;49.186;9.222;2024-01-06T06:28:41;7.53;;;3.03;;
75169;SDS011;63749;49.186;9.222;2024-01-06T06:31:06;7.13;;;3.40;;
75169;SDS011;63749;49.186;9.222;2024-01-06T06:33:32;10.63;;;3.70;;
75169;SDS011;63749;49.186;9.222;2024-01-06T06:36:00;10.17;;;3.80;;
75169;SDS011;63749;49.186;9.222;2024-01-06T06:38:26;6.70;;;3.63;;
75169;SDS011;63749;49.186;9.222;2024-01-06T06:40:52;12.10;;;3.63;;
75169;SDS011;63749;49.186;9.222;2024-01-06T06:43:17;7.97;;;3.55;;
75169;SDS011;63749;49.186;9.222;2024-01-06T06:45:42;9.90;;;3.30;;
75169;SDS011;63749;49.186;9.222;2024-01-06T06:48:10;7.55;;;3.10;;
75169;SDS011;63749;49.186;9.222;2024-01-06T06:50:35;10.40;;;3.27;;
75169;SDS011;63749;49.186;9.222;2024-01-06T06:53:01;8.82;;;2.85;;
75169;SDS011;63749;49.186;9.222;2024-01-06T06:55:26;7.17;;;3.00;;
75169;SDS011;63749;49.186;9.222;2024-01-06T06:57:52;7.67;;;3.00;;
75169;SDS011;63749;49.186;9.222;2024-01-06T07:00:18;8.52;;;3.75;;
75169;SDS011;63749;49.186;9.222;2024-01-06T07:02:43;8.07;;;3.60;;
75169;SDS011;63749;49.186;9.222;2024-01-06T07:05:09;10.77;;;3.47;;
75169;SDS011;63749;49.186;9.222;2024-01-06T07:07:34;7.70;;;3.33;;
75169;SDS011;63749;49.186;9.222;2024-01-06T07:10:00;8.77;;;3.37;;
75169;SDS011;63749;49.186;9.222;2024-01-06T07:12:27;10.70;;;3.40;;
75169;SDS011;63749;49.186;9.222;2024-01-06T07:14:52;8.33;;;3.47;;
75169;SDS011;63749;49.186;9.222;2024-01-06T07:17:18;10.00;;;3.15;;
75169;SDS011;63749;49.186;9.222;2024-01-06T07:19:43;6.33;;;3.20;;
75169;SDS011;63749;49.186;9.222;2024-01-06T07:22:08;7.67;;;3.30;;
75169;SDS011;63749;49.186;9.222;2024-01-06T07:24:34;8.03;;;3.63;;
75169;SDS011;63749;49.186;9.222;2024-01-06T07:27:01;7.87;;;3.50;;
75169;SDS011;63749;49.186;9.222;2024-01-06T07:29:27;12.57;;;4.65;;
75169;SDS011;63749;49.186;9.222;2024-01-06T07:31:52;10.67;;;5.37;;
75169;SDS011;63749;49.186;9.222;2024-01-06T07:34:17;8.67;;;4.20;;
75169;SDS011;63749;49.186;9.222;2024-01-06T07:36:43;10.27;;;3.83;;
75169;SDS011;63749;49.186;9.222;2024-01-06T07:39:08;8.10;;;3.28;;
75169;SDS011;63749;49.186;9.222;2024-01-06T07:41:34;9.67;;;3.80;;
75169;SDS011;63749;49.186;9.222;2024-01-06T07:43:59;12.20;;;4.60;;
75169;SDS011;63749;49.186;9.222;2024-01-06T07:46:27;8.95;;;5.18;;
75169;SDS011;63749;49.186;9.222;2024-01-06T07:48:52;12.40;;;6.37;;
75169;SDS011;63749;49.186;9.222;2024-01-06T07:51:18;12.90;;;6.30;;
75169;SDS011;63749;49.186;9.222;2024-01-06T07:53:43;12.37;;;6.07;;
75169;SDS011;63749;49.186;9.222;2024-01-06T07:56:08;12.53;;;6.80;;
75169;SDS011;63749;49.186;9.222;2024-01-06T07:58:34;14.30;;;7.37;;
75169;SDS011;63749;49.186;9.222;2024-01-06T08:00:59;12.07;;;6.80;;
75169;SDS011;63749;49.186;9.222;2024-01-06T08:03:25;12.93;;;7.50;;
75169;SDS011;63749;49.186;9.222;2024-01-06T08:05:50;13.03;;;7.00;;
75169;SDS011;63749;49.186;9.222;2024-01-06T08:08:15;14.53;;;7.90;;
75169;SDS011;63749;49.186;9.222;2024-01-06T08:10:42;12.48;;;7.80;;
75169;SDS011;63749;49.186;9.222;2024-01-06T08:13:07;12.27;;;7.50;;
75169;SDS011;63749;49.186;9.222;2024-01-06T08:15:33;16.87;;;8.10;;
75169;SDS011;63749;49.186;9.222;2024-01-06T08:17:59;16.67;;;7.78;;
75169;SDS011;63749;49.186;9.222;2024-01-06T08:20:24;11.33;;;6.00;;
75169;SDS011;63749;49.186;9.222;2024-01-06T08:22:49;7.43;;;4.30;;
75169;SDS011;63749;49.186;9.222;2024-01-06T08:25:15;11.87;;;3.70;;
75169;SDS011;63749;49.186;9.222;2024-01-06T08:27:42;7.65;;;3.13;;
75169;SDS011;63749;49.186;9.222;2024-01-06T08:30:08;8.70;;;3.47;;
75169;SDS011;63749;49.186;9.222;2024-01-06T08:32:33;8.63;;;2.90;;
75169;SDS011;63749;49.186;9.222;2024-01-06T08:34:59;5.37;;;2.77;;
75169;SDS011;63749;49.186;9.222;2024-01-06T08:37:24;7.30;;;3.20;;
75169;SDS011;63749;49.186;9.222;2024-01-06T08:39:49;9.23;;;2.80;;
75169;SDS011;63749;49.186;9.222;2024-01-06T08:42:15;6.63;;;2.80;;
75169;SDS011;63749;49.186;9.222;2024-01-06T08:44:40;7.67;;;3.13;;
75169;SDS011;63749;49.186;9.222;2024-01-06T08:47:06;7.83;;;2.67;;
75169;SDS011;63749;49.186;9.222;2024-01-06T08:49:31;6.40;;;3.10;;
75169;SDS011;63749;49.186;9.222;2024-01-06T08:51:57;9.95;;;3.25;;
75169;SDS011;63749;49.186;9.222;2024-01-06T08:54:23;7.40;;;3.07;;
75169;SDS011;63749;49.186;9.222;2024-01-06T08:56:49;10.80;;;5.53;;
75169;SDS011;63749;49.186;9.222;2024-01-06T08:59:14;9.90;;;5.10;;
75169;SDS011;63749;49.186;9.222;2024-01-06T09:01:39;7.93;;;3.63;;
75169;SDS011;63749;49.186;9.222;2024-01-06T09:04:05;10.27;;;3.73;;
75169;SDS011;63749;49.186;9.222;2024-01-06T09:06:31;8.07;;;2.90;;
75169;SDS011;63749;49.186;9.222;2024-01-06T09:08:57;8.90;;;2.97;;
75169;SDS011;63749;49.186;9.222;2024-01-06T09:11:22;7.30;;;3.10;;
75169;SDS011;63749;49.186;9.222;2024-01-06T09:13:47;7.65;;;3.85;;
75169;SDS011;63749;49.186;9.222;2024-01-06T09:16:13;10.00;;;4.50;;
75169;SDS011;63749;49.186;9.222;2024-01-06T09:18:38;9.97;;;4.40;;
75169;SDS011;63749;49.186;9.222;2024-01-06T09:21:04;10.05;;;4.10;;
75169;SDS011;63749;49.186;9.222;2024-01-06T09:23:30;11.07;;;3.50;;
75169;SDS011;63749;49.186;9.222;2024-01-06T09:25:56;7.07;;;3.35;;
75169;SDS011;63749;49.186;9.222;2024-01-06T09:28:22;10.15;;;3.70;;
75169;SDS011;63749;49.186;9.222;2024-01-06T09:30:48;7.90;;;4.10;;
75169;SDS011;63749;49.186;9.222;2024-01-06T09:33:14;11.17;;;3.73;;
75169;SDS011;63749;49.186;9.222;2024-01-06T09:35:41;13.90;;;5.63;;
75169;SDS011;63749;49.186;9.222;2024-01-06T09:38:07;9.98;;;4.90;;
75169;SDS011;63749;49.186;9.222;2024-01-06T09:40:32;11.43;;;4.30;;
75169;SDS011;63749;49.186;9.222;2024-01-06T09:42:59;8.45;;;4.28;;
75169;SDS011;63749;49.186;9.222;2024-01-06T09:45:25;12.33;;;4.17;;
75169;SDS011;63749;49.186;9.222;2024-01-06T09:47:51;9.60;;;4.03;;
75169;SDS011;63749;49.186;9.222;2024-01-06T09:50:19;10.95;;;4.32;;
75169;SDS011;63749;49.186;9.222;2024-01-06T09:52:46;9.30;;;4.03;;
75169;SDS011;63749;49.186;9.222;2024-01-06T09:55:22;9.13;;;4.35;;
75169;SDS011;63749;49.186;9.222;2024-01-06T09:57:50;11.33;;;4.60;;
75169;SDS011;63749;49.186;9.222;2024-01-06T10:00:16;10.18;;;4.32;;
75169;SDS011;63749;49.186;9.222;2024-01-06T10:02:42;8.05;;;3.88;;
75169;SDS011;63749;49.186;9.222;2024-01-06T10:05:08;7.30;;;4.60;;
75169;SDS011;63749;49.186;9.222;2024-01-06T10:07:35;13.80;;;5.83;;
75169;SDS011;63749;49.186;9.222;2024-01-06T10:10:00;11.10;;;5.60;;
75169;SDS011;63749;49.186;9.222;2024-01-06T10:12:25;10.95;;;4.45;;
75169;SDS011;63749;49.186;9.222;2024-01-06T10:14:51;11.20;;;5.50;;
75169;SDS011;63749;49.186;9.222;2024-01-06T10:17:17;11.82;;;5.70;;
75169;SDS011;63749;49.186;9.222;2024-01-06T10:19:46;11.38;;;5.57;;
75169;SDS011;63749;49.186;9.222;2024-01-06T10:22:12;9.77;;;5.10;;
75169;SDS011;63749;49.186;9.222;2024-01-06T10:24:38;10.57;;;5.07;;
75169;SDS011;63749;49.186;9.222;2024-01-06T10:27:03;8.77;;;4.20;;
75169;SDS011;63749;49.186;9.222;2024-01-06T10:29:29;10.40;;;5.05;;
75169;SDS011;63749;49.186;9.222;2024-01-06T10:31:54;12.50;;;5.33;;
75169;SDS011;63749;49.186;9.222;2024-01-06T10:34:21;12.13;;;6.50;;
75169;SDS011;63749;49.186;9.222;2024-01-06T10:36:47;11.15;;;5.00;;
75169;SDS011;63749;49.186;9.222;2024-01-06T10:39:14;10.27;;;4.90;;
75169;SDS011;63749;49.186;9.222;2024-01-06T10:41:41;9.77;;;4.90;;
75169;SDS011;63749;49.186;9.222;2024-01-06T10:44:09;11.57;;;4.97;;
75169;SDS011;63749;49.186;9.222;2024-01-06T10:46:36;8.93;;;4.60;;
75169;SDS011;63749;49.186;9.222;2024-01-06T10:49:01;9.88;;;5.50;;
75169;SDS011;63749;49.186;9.222;2024-01-06T10:51:29;13.63;;;5.23;;
75169;SDS011;63749;49.186;9.222;2024-01-06T10:53:57;9.93;;;4.90;;
75169;SDS011;63749;49.186;9.222;2024-01-06T10:56:25;11.60;;;5.00;;
75169;SDS011;63749;49.186;9.222;2024-01-06T10:58:51;10.93;;;5.87;;
75169;SDS011;63749;49.186;9.222;2024-01-06T11:01:22;8.60;;;5.05;;
75169;SDS011;63749;49.186;9.222;2024-01-06T11:03:49;11.77;;;4.78;;
75169;SDS011;63749;49.186;9.222;2024-01-06T11:06:15;9.32;;;4.90;;
75169;SDS011;63749;49.186;9.222;2024-01-06T11:11:34;8.35;;;5.00;;
75169;SDS011;63749;49.186;9.222;2024-01-06T11:14:24;10.82;;;5.50;;
75169;SDS011;63749;49.186;9.222;2024-01-06T11:16:50;13.73;;;6.22;;
75169;SDS011;63749;49.186;9.222;2024-01-06T11:24:49;10.88;;;5.70;;
75169;SDS011;63749;49.186;9.222;2024-01-06T11:27:25;10.15;;;6.25;;
75169;SDS011;63749;49.186;9.222;2024-01-06T11:29:56;12.48;;;6.70;;
75169;SDS011;63749;49.186;9.222;2024-01-06T11:32:27;14.65;;;7.63;;
75169;SDS011;63749;49.186;9.222;2024-01-06T11:34:54;10.97;;;5.70;;
75169;SDS011;63749;49.186;9.222;2024-01-06T11:40:07;12.75;;;6.53;;
75169;SDS011;63749;49.186;9.222;2024-01-06T11:42:44;13.13;;;6.40;;
75169;SDS011;63749;49.186;9.222;2024-01-06T11:45:10;11.75;;;5.82;;
75169;SDS011;63749;49.186;9.222;2024-01-06T11:47:36;12.17;;;5.70;;
75169;SDS011;63749;49.186;9.222;2024-01-06T11:50:01;12.50;;;6.10;;
75169;SDS011;63749;49.186;9.222;2024-01-06T11:52:31;10.50;;;5.28;;
75169;SDS011;63749;49.186;9.222;2024-01-06T11:54:57;11.35;;;6.50;;
75169;SDS011;63749;49.186;9.222;2024-01-06T11:57:25;12.40;;;6.40;;
75169;SDS011;63749;49.186;9.222;2024-01-06T11:59:50;12.25;;;5.50;;
75169;SDS011;63749;49.186;9.222;2024-01-06T12:02:17;10.17;;;5.73;;
75169;SDS011;63749;49.186;9.222;2024-01-06T12:04:47;10.63;;;5.85;;
75169;SDS011;63749;49.186;9.222;2024-01-06T12:07:16;9.60;;;5.40;;
75169;SDS011;63749;49.186;9.222;2024-01-06T12:09:42;10.85;;;5.70;;
75169;SDS011;63749;49.186;9.222;2024-01-06T12:12:07;10.33;;;5.60;;
75169;SDS011;63749;49.186;9.222;2024-01-06T12:14:34;9.80;;;5.28;;
75169;SDS011;63749;49.186;9.222;2024-01-06T12:17:00;9.27;;;5.20;;
75169;SDS011;63749;49.186;9.222;2024-01-06T12:19:29;9.80;;;5.63;;
75169;SDS011;63749;49.186;9.222;2024-01-06T12:21:58;9.82;;;5.35;;
75169;SDS011;63749;49.186;9.222;2024-01-06T12:24:24;9.67;;;5.50;;
75169;SDS011;63749;49.186;9.222;2024-01-06T12:26:52;11.32;;;5.68;;
75169;SDS011;63749;49.186;9.222;2024-01-06T12:29:18;10.20;;;5.63;;
75169;SDS011;63749;49.186;9.222;2024-01-06T12:31:44;11.65;;;6.03;;
75169;SDS011;63749;49.186;9.222;2024-01-06T12:34:11;8.85;;;5.68;;
75169;SDS011;63749;49.186;9.222;2024-01-06T12:36:37;10.80;;;5.53;;
75169;SDS011;63749;49.186;9.222;2024-01-06T12:39:03;9.73;;;5.03;;
75169;SDS011;63749;49.186;9.222;2024-01-06T12:41:29;11.27;;;6.15;;
75169;SDS011;63749;49.186;9.222;2024-01-06T12:43:55;10.23;;;5.60;;
75169;SDS011;63749;49.186;9.222;2024-01-06T12:46:20;11.10;;;6.00;;
75169;SDS011;63749;49.186;9.222;2024-01-06T12:48:45;9.93;;;6.00;;
75169;SDS011;63749;49.186;9.222;2024-01-06T12:51:12;11.57;;;6.47;;
75169;SDS011;63749;49.186;9.222;2024-01-06T12:53:37;10.50;;;6.10;;
75169;SDS011;63749;49.186;9.222;2024-01-06T12:56:03;11.98;;;5.78;;
75169;SDS011;63749;49.186;9.222;2024-01-06T12:58:28;12.67;;;7.23;;
75169;SDS011;63749;49.186;9.222;2024-01-06T13:00:55;10.10;;;5.77;;
75169;SDS011;63749;49.186;9.222;2024-01-06T13:03:21;10.20;;;5.80;;
75169;SDS011;63749;49.186;9.222;2024-01-06T13:05:47;11.80;;;6.70;;
75169;SDS011;63749;49.186;9.222;2024-01-06T13:08:12;11.38;;;5.93;;
75169;SDS011;63749;49.186;9.222;2024-01-06T13:10:38;11.67;;;6.20;;
75169;SDS011;63749;49.186;9.222;2024-01-06T13:13:03;11.63;;;6.23;;
75169;SDS011;63749;49.186;9.222;2024-01-06T13:15:29;13.37;;;6.53;;
75169;SDS011;63749;49.186;9.222;2024-01-06T13:17:55;10.57;;;6.30;;
75169;SDS011;63749;49.186;9.222;2024-01-06T13:20:22;12.77;;;6.97;;
75169;SDS011;63749;49.186;9.222;2024-01-06T13:22:47;11.63;;;6.97;;
75169;SDS011;63749;49.186;9.222;2024-01-06T13:25:12;13.10;;;7.10;;
75169;SDS011;63749;49.186;9.222;2024-01-06T13:27:38;12.30;;;6.47;;
75169;SDS011;63749;49.186;9.222;2024-01-06T13:30:03;12.87;;;6.80;;
75169;SDS011;63749;49.186;9.222;2024-01-06T13:32:29;12.90;;;6.50;;
75169;SDS011;63749;49.186;9.222;2024-01-06T13:34:55;11.97;;;6.40;;
75169;SDS011;63749;49.186;9.222;2024-01-06T13:37:26;12.45;;;6.68;;
75169;SDS011;63749;49.186;9.222;2024-01-06T13:39:52;11.23;;;6.00;;
75169;SDS011;63749;49.186;9.222;2024-01-06T13:42:18;12.93;;;7.00;;
75169;SDS011;63749;49.186;9.222;2024-01-06T13:44:43;15.35;;;7.88;;
75169;SDS011;63749;49.186;9.222;2024-01-06T13:47:09;14.40;;;7.60;;
75169;SDS011;63749;49.186;9.222;2024-01-06T13:49:34;11.10;;;6.57;;
75169;SDS011;63749;49.186;9.222;2024-01-06T13:52:00;12.30;;;6.53;;
75169;SDS011;63749;49.186;9.222;2024-01-06T13:54:26;12.50;;;6.60;;
75169;SDS011;63749;49.186;9.222;2024-01-06T13:56:51;10.60;;;6.47;;
75169;SDS011;63749;49.186;9.222;2024-01-06T13:59:17;11.70;;;6.13;;
75169;SDS011;63749;49.186;9.222;2024-01-06T14:01:42;11.43;;;6.30;;
75169;SDS011;63749;49.186;9.222;2024-01-06T14:04:08;10.32;;;5.75;;
75169;SDS011;63749;49.186;9.222;2024-01-06T14:06:33;11.17;;;6.40;;
75169;SDS011;63749;49.186;9.222;2024-01-06T14:08:59;11.83;;;6.20;;
75169;SDS011;63749;49.186;9.222;2024-01-06T14:11:25;11.15;;;6.05;;
75169;SDS011;63749;49.186;9.222;2024-01-06T14:13:52;9.48;;;5.85;;
75169;SDS011;63749;49.186;9.222;2024-01-06T14:16:18;11.10;;;5.77;;
75169;SDS011;63749;49.186;9.222;2024-01-06T14:18:44;10.82;;;6.00;;
75169;SDS011;63749;49.186;9.222;2024-01-06T14:21:10;10.13;;;6.05;;
75169;SDS011;63749;49.186;9.222;2024-01-06T14:23:37;11.17;;;5.90;;
75169;SDS011;63749;49.186;9.222;2024-01-06T14:26:02;10.00;;;5.70;;
75169;SDS011;63749;49.186;9.222;2024-01-06T14:28:28;11.10;;;6.22;;
75169;SDS011;63749;49.186;9.222;2024-01-06T14:30:54;10.60;;;5.80;;
75169;SDS011;63749;49.186;9.222;2024-01-06T14:33:19;12.20;;;6.13;;
75169;SDS011;63749;49.186;9.222;2024-01-06T14:35:45;8.50;;;5.43;;
75169;SDS011;63749;49.186;9.222;2024-01-06T14:38:11;10.13;;;6.10;;
75169;SDS011;63749;49.186;9.222;2024-01-06T14:40:36;10.17;;;5.63;;
75169;SDS011;63749;49.186;9.222;2024-01-06T14:43:03;9.82;;;5.97;;